createdAt,value
2018-02-03T00:01:01.380Z,35.87
2018-02-03T00:03:31.746Z,36.00
2018-02-03T00:05:59.381Z,36.47
2018-02-03T00:08:26.938Z,38.70
2018-02-03T00:10:54.503Z,42.60
2018-02-03T00:13:22.994Z,42.37
2018-02-03T00:15:51.302Z,43.33
2018-02-03T00:18:18.851Z,46.97
2018-02-03T00:20:47.313Z,50.97
2018-02-03T00:23:15.986Z,46.83
2018-02-03T00:25:49.268Z,45.33
2018-02-03T00:28:23.698Z,45.07
2018-02-03T00:31:06.163Z,44.07
2018-02-03T00:33:36.901Z,47.10
2018-02-03T00:36:05.346Z,38.73
2018-02-03T00:38:34.036Z,35.93
2018-02-03T00:41:05.550Z,35.73
2018-02-03T00:43:47.993Z,28.43
2018-02-03T00:46:19.362Z,28.27
2018-02-03T00:48:46.967Z,27.57
2018-02-03T00:51:17.730Z,27.37
2018-02-03T00:53:53.329Z,24.83
2018-02-03T00:56:22.630Z,21.20
2018-02-03T00:58:53.218Z,22.50
2018-02-03T01:01:24.629Z,21.80
2018-02-03T01:04:07.128Z,22.50
2018-02-03T01:06:35.099Z,17.97
2018-02-03T01:09:02.930Z,17.03
2018-02-03T01:11:31.294Z,15.97
2018-02-03T01:14:01.910Z,20.23
2018-02-03T01:16:32.649Z,17.90
2018-02-03T01:19:18.893Z,20.80
2018-02-03T01:22:03.980Z,19.37
2018-02-03T01:24:32.737Z,18.73
2018-02-03T01:27:15.225Z,16.07
2018-02-03T01:29:46.377Z,17.00
2018-02-03T01:32:17.306Z,15.87
2018-02-03T01:34:47.810Z,16.97
2018-02-03T01:37:23.104Z,14.83
2018-02-03T01:40:04.054Z,18.10
2018-02-03T01:42:32.542Z,18.90
2018-02-03T01:45:00.246Z,20.87
2018-02-03T01:47:39.802Z,21.10
2018-02-03T01:50:21.267Z,19.80
2018-02-03T01:52:48.877Z,21.87
2018-02-03T01:55:16.459Z,19.47
2018-02-03T01:57:44.035Z,18.00
2018-02-03T02:00:12.939Z,17.20
2018-02-03T02:02:43.779Z,17.00
2018-02-03T02:05:11.646Z,17.77
2018-02-03T02:07:42.209Z,15.87
2018-02-03T02:10:09.825Z,18.50
2018-02-03T02:12:40.472Z,16.80
2018-02-03T02:15:11.662Z,16.17
2018-02-03T02:17:56.362Z,14.90
2018-02-03T02:20:23.926Z,10.30
2018-02-03T02:22:58.858Z,12.90
2018-02-03T02:25:26.797Z,8.30
2018-02-03T02:27:58.358Z,9.67
2018-02-03T02:30:25.962Z,8.90
2018-02-03T02:33:00.341Z,10.30
2018-02-03T02:35:27.953Z,12.13
2018-02-03T02:37:58.550Z,11.50
2018-02-03T02:40:35.802Z,13.47
2018-02-03T02:43:09.084Z,13.90
2018-02-03T02:45:46.827Z,15.17
2018-02-03T02:48:21.765Z,15.27
2018-02-03T02:50:50.186Z,12.80
2018-02-03T02:53:17.770Z,14.13
2018-02-03T02:56:00.381Z,10.90
2018-02-03T02:58:28.901Z,12.53
2018-02-03T03:00:56.762Z,11.80
2018-02-03T03:03:27.417Z,11.00
2018-02-03T03:06:01.880Z,12.40
2018-02-03T03:08:29.894Z,11.97
2018-02-03T03:10:57.748Z,12.10
2018-02-03T03:13:29.188Z,13.63
2018-02-03T03:15:57.887Z,9.57
2018-02-03T03:18:28.835Z,9.47
2018-02-03T03:20:57.434Z,9.03
2018-02-03T03:23:25.641Z,9.13
2018-02-03T03:25:53.959Z,9.30
2018-02-03T03:28:31.827Z,10.37
2018-02-03T03:31:01.112Z,9.33
2018-02-03T03:33:36.004Z,5.87
2018-02-03T03:36:03.914Z,6.13
2018-02-03T03:38:32.558Z,4.53
2018-02-03T03:41:00.113Z,4.37
2018-02-03T03:43:38.630Z,4.00
2018-02-03T03:46:07.057Z,4.30
2018-02-03T03:48:47.978Z,4.13
2018-02-03T03:51:19.329Z,4.60
2018-02-03T03:53:54.200Z,4.03
2018-02-03T03:56:21.886Z,4.10
2018-02-03T03:59:03.416Z,5.10
2018-02-03T04:01:31.764Z,4.80
2018-02-03T04:04:06.385Z,4.80
2018-02-03T04:06:34.899Z,4.50
2018-02-03T04:09:05.427Z,4.77
2018-02-03T04:11:33.851Z,4.47
2018-02-03T04:14:01.754Z,4.00
2018-02-03T04:16:32.447Z,4.40
2018-02-03T04:19:01.078Z,4.60
2018-02-03T04:21:32.018Z,4.40
2018-02-03T04:23:59.682Z,3.40
2018-02-03T04:26:27.394Z,4.83
2018-02-03T04:28:55.036Z,4.13
2018-02-03T04:31:22.687Z,4.17
2018-02-03T04:33:50.317Z,4.70
2018-02-03T04:36:18.130Z,4.10
2018-02-03T04:38:45.804Z,4.40
2018-02-03T04:41:13.574Z,3.60
2018-02-03T04:43:41.329Z,3.90
2018-02-03T04:46:09.786Z,3.87
2018-02-03T04:48:37.874Z,3.10
2018-02-03T04:51:05.594Z,5.90
2018-02-03T04:53:33.306Z,4.87
2018-02-03T04:56:00.971Z,4.10
2018-02-03T04:58:28.555Z,4.40
2018-02-03T05:00:59.039Z,4.20
2018-02-03T05:03:27.185Z,5.00
2018-02-03T05:05:54.777Z,4.60
2018-02-03T05:08:23.220Z,6.20
2018-02-03T05:10:51.811Z,4.20
2018-02-03T05:16:17.758Z,4.67
2018-02-03T05:18:45.375Z,4.60
2018-02-03T05:21:13.079Z,4.17
2018-02-03T05:23:40.725Z,4.07
2018-02-03T05:26:08.422Z,4.60
2018-02-03T05:28:36.160Z,5.10
2018-02-03T05:31:03.760Z,4.73
2018-02-03T05:33:31.341Z,3.83
2018-02-03T05:35:59.003Z,3.70
2018-02-03T05:38:27.510Z,3.30
2018-02-03T05:40:55.106Z,4.37
2018-02-03T05:43:23.429Z,4.00
2018-02-03T05:45:51.845Z,4.30
2018-02-03T05:48:19.734Z,4.77
2018-02-03T05:50:47.531Z,4.97
2018-02-03T05:53:15.145Z,4.60
2018-02-03T05:55:43.582Z,4.30
2018-02-03T05:58:11.758Z,4.80
2018-02-03T06:00:39.672Z,4.87
2018-02-03T06:03:07.239Z,4.20
2018-02-03T06:05:34.917Z,4.63
2018-02-03T06:08:02.490Z,4.73
2018-02-03T06:10:30.161Z,4.17
2018-02-03T06:12:57.830Z,5.10
2018-02-03T06:15:25.399Z,5.70
2018-02-03T06:17:52.958Z,4.87
2018-02-03T06:20:20.631Z,5.00
2018-02-03T06:22:48.181Z,4.50
2018-02-03T06:25:15.757Z,4.20
2018-02-03T06:27:43.446Z,5.07
2018-02-03T06:30:11.551Z,4.40
2018-02-03T06:32:39.191Z,5.07
2018-02-03T06:35:06.829Z,4.43
2018-02-03T06:37:34.443Z,3.63
2018-02-03T06:40:02.104Z,4.30
2018-02-03T06:42:30.046Z,5.70
2018-02-03T06:44:58.609Z,4.20
2018-02-03T06:47:27.061Z,4.40
2018-02-03T06:49:54.819Z,4.27
2018-02-03T06:52:22.392Z,5.87
2018-02-03T06:54:50.017Z,3.90
2018-02-03T06:57:18.972Z,3.80
2018-02-03T06:59:46.661Z,5.23
2018-02-03T07:02:14.421Z,4.60
2018-02-03T07:04:43.974Z,4.80
2018-02-03T07:07:11.702Z,5.23
2018-02-03T07:09:39.302Z,4.80
2018-02-03T07:12:07.046Z,5.90
2018-02-03T07:14:34.854Z,4.83
2018-02-03T07:17:02.464Z,4.37
2018-02-03T07:19:30.140Z,4.60
2018-02-03T07:21:57.923Z,5.30
2018-02-03T07:24:25.759Z,5.87
2018-02-03T07:26:53.473Z,5.40
2018-02-03T07:29:21.200Z,6.80
2018-02-03T07:31:48.883Z,4.20
2018-02-03T07:34:18.071Z,4.73
2018-02-03T07:36:45.955Z,5.70
2018-02-03T07:39:13.605Z,5.82
2018-02-03T07:41:41.491Z,5.70
2018-02-03T07:44:09.335Z,6.30
2018-02-03T07:46:36.899Z,4.83
2018-02-03T07:49:04.468Z,6.13
2018-02-03T07:51:32.731Z,6.13
2018-02-03T07:54:00.378Z,6.43
2018-02-03T07:56:27.941Z,5.80
2018-02-03T07:58:55.604Z,5.60
2018-02-03T08:01:23.163Z,6.23
2018-02-03T08:03:50.786Z,5.40
2018-02-03T08:06:18.367Z,6.90
2018-02-03T08:08:45.930Z,5.70
2018-02-03T08:11:13.509Z,6.00
2018-02-03T08:13:41.841Z,5.57
2018-02-03T08:16:09.747Z,5.67
2018-02-03T08:18:37.433Z,5.40
2018-02-03T08:21:04.998Z,6.40
2018-02-03T08:23:32.810Z,6.60
2018-02-03T08:26:00.377Z,7.23
2018-02-03T08:28:28.858Z,5.17
2018-02-03T08:30:57.248Z,5.17
2018-02-03T08:33:24.872Z,6.40
2018-02-03T08:35:52.572Z,6.43
2018-02-03T08:38:20.121Z,6.43
2018-02-03T08:40:47.687Z,6.27
2018-02-03T08:43:15.386Z,5.53
2018-02-03T08:45:42.978Z,6.30
2018-02-03T08:48:10.542Z,5.67
2018-02-03T08:50:38.243Z,6.40
2018-02-03T08:53:05.878Z,5.20
2018-02-03T08:55:33.626Z,5.90
2018-02-03T08:58:01.219Z,5.20
2018-02-03T09:00:28.818Z,6.10
2018-02-03T09:02:56.409Z,6.80
2018-02-03T09:05:24.067Z,6.90
2018-02-03T09:07:51.724Z,6.57
2018-02-03T09:10:19.494Z,5.70
2018-02-03T09:12:47.154Z,6.10
2018-02-03T09:15:14.735Z,5.67
2018-02-03T09:17:42.367Z,4.70
2018-02-03T09:20:10.123Z,5.00
2018-02-03T09:22:37.958Z,5.30
2018-02-03T09:25:05.663Z,6.07
2018-02-03T09:27:33.235Z,4.33
2018-02-03T09:30:00.824Z,5.33
2018-02-03T09:32:28.482Z,6.53
2018-02-03T09:34:56.083Z,6.00
2018-02-03T09:37:23.742Z,6.43
2018-02-03T09:39:51.321Z,6.73
2018-02-03T09:42:19.382Z,6.30
2018-02-03T09:44:46.942Z,6.20
2018-02-03T09:47:14.581Z,5.10
2018-02-03T09:49:42.162Z,6.40
2018-02-03T09:52:09.722Z,6.37
2018-02-03T09:54:37.304Z,6.73
2018-02-03T09:57:04.905Z,7.33
2018-02-03T09:59:32.613Z,7.60
2018-02-03T10:02:00.274Z,6.80
2018-02-03T10:04:27.894Z,7.27
2018-02-03T10:06:55.574Z,7.60
2018-02-03T10:09:24.041Z,8.13
2018-02-03T10:11:51.630Z,7.97
2018-02-03T10:14:19.200Z,7.10
2018-02-03T10:16:46.888Z,7.17
2018-02-03T10:19:15.646Z,7.13
2018-02-03T10:21:43.270Z,6.37
2018-02-03T10:24:10.834Z,8.27
2018-02-03T10:26:38.619Z,6.70
2018-02-03T10:29:06.263Z,7.97
2018-02-03T10:31:33.882Z,6.40
2018-02-03T10:34:01.542Z,5.97
2018-02-03T10:36:29.107Z,6.60
2018-02-03T10:38:56.674Z,6.40
2018-02-03T10:41:24.247Z,7.03
2018-02-03T10:43:51.978Z,5.40
2018-02-03T10:46:19.635Z,5.87
2018-02-03T10:48:47.277Z,5.90
2018-02-03T10:51:14.940Z,5.50
2018-02-03T10:53:42.506Z,5.07
2018-02-03T10:56:10.071Z,5.27
2018-02-03T10:58:37.666Z,5.10
2018-02-03T11:01:09.803Z,4.97
2018-02-03T11:03:37.380Z,4.43
2018-02-03T11:06:05.110Z,5.37
2018-02-03T11:08:32.806Z,4.47
2018-02-03T11:11:00.371Z,5.10
2018-02-03T11:13:27.994Z,4.77
2018-02-03T11:15:56.335Z,4.00
2018-02-03T11:18:24.094Z,4.13
2018-02-03T11:20:51.670Z,4.93
2018-02-03T11:23:19.286Z,4.80
2018-02-03T11:25:46.975Z,5.30
2018-02-03T11:28:14.535Z,4.07
2018-02-03T11:30:42.291Z,5.20
2018-02-03T11:33:10.309Z,4.00
2018-02-03T11:35:37.886Z,3.43
2018-02-03T11:38:05.563Z,4.20
2018-02-03T11:40:33.287Z,4.67
2018-02-03T11:43:01.064Z,3.47
2018-02-03T11:45:29.180Z,4.00
2018-02-03T11:47:57.163Z,3.70
2018-02-03T11:50:24.983Z,3.83
2018-02-03T11:52:52.654Z,3.37
2018-02-03T11:55:20.282Z,4.40
2018-02-03T11:57:47.938Z,3.30
2018-02-03T12:00:15.977Z,3.53
2018-02-03T12:02:43.632Z,3.90
2018-02-03T12:05:11.268Z,6.80
2018-02-03T12:07:38.957Z,5.00
2018-02-03T12:10:06.941Z,3.50
2018-02-03T12:12:34.559Z,3.83
2018-02-03T12:15:02.261Z,3.10
2018-02-03T12:17:30.071Z,4.50
2018-02-03T12:19:58.246Z,3.23
2018-02-03T12:22:25.815Z,3.87
2018-02-03T12:24:53.381Z,3.00
2018-02-03T12:27:21.198Z,3.70
2018-02-03T12:29:48.834Z,7.10
2018-02-03T12:32:16.681Z,3.23
2018-02-03T12:34:44.329Z,4.33
2018-02-03T12:37:12.035Z,4.30
2018-02-03T12:39:39.654Z,3.63
2018-02-03T12:42:08.105Z,4.10
2018-02-03T12:44:35.678Z,8.67
2018-02-03T12:47:03.485Z,5.93
2018-02-03T12:49:31.222Z,12.77
2018-02-03T12:51:58.843Z,6.83
2018-02-03T12:54:26.542Z,4.40
2018-02-03T12:56:54.242Z,5.37
2018-02-03T12:59:21.803Z,3.60
2018-02-03T13:01:49.373Z,4.80
2018-02-03T13:04:17.178Z,4.30
2018-02-03T13:06:44.757Z,3.53
2018-02-03T13:09:12.374Z,3.33
2018-02-03T13:11:40.044Z,3.30
2018-02-03T13:14:07.804Z,3.63
2018-02-03T13:16:36.724Z,4.50
2018-02-03T13:19:04.310Z,3.00
2018-02-03T13:21:31.965Z,3.70
2018-02-03T13:23:59.637Z,3.60
2018-02-03T13:26:27.229Z,4.77
2018-02-03T13:28:54.961Z,11.50
2018-02-03T13:31:23.596Z,4.27
2018-02-03T13:33:51.340Z,9.30
2018-02-03T13:36:19.081Z,3.43
2018-02-03T13:38:46.887Z,2.90
2018-02-03T13:41:14.495Z,4.27
2018-02-03T13:43:42.375Z,2.90
2018-02-03T13:46:10.090Z,4.03
2018-02-03T13:48:38.713Z,4.30
2018-02-03T13:51:06.758Z,3.40
2018-02-03T13:53:35.379Z,3.10
2018-02-03T13:56:03.061Z,3.97
2018-02-03T13:58:32.644Z,3.37
2018-02-03T14:01:00.277Z,3.00
2018-02-03T14:03:29.972Z,2.93
2018-02-03T14:05:57.538Z,3.93
2018-02-03T14:08:25.133Z,4.10
2018-02-03T14:10:53.569Z,4.30
2018-02-03T14:13:21.565Z,4.60
2018-02-03T14:15:49.203Z,8.37
2018-02-03T14:18:16.771Z,4.43
2018-02-03T14:20:44.465Z,4.30
2018-02-03T14:23:12.044Z,5.00
2018-02-03T14:25:39.728Z,3.70
2018-02-03T14:28:07.330Z,4.13
2018-02-03T14:30:34.944Z,4.90
2018-02-03T14:33:02.850Z,4.40
2018-02-03T14:35:31.749Z,4.10
2018-02-03T14:37:59.810Z,5.70
2018-02-03T14:40:28.530Z,5.30
2018-02-03T14:42:56.227Z,6.53
2018-02-03T14:45:24.188Z,6.07
2018-02-03T14:47:51.885Z,5.50
2018-02-03T14:50:19.698Z,3.60
2018-02-03T14:52:47.773Z,4.30
2018-02-03T14:55:16.093Z,3.93
2018-02-03T14:57:44.756Z,5.33
2018-02-03T15:00:20.292Z,4.37
2018-02-03T15:02:47.943Z,4.17
2018-02-03T15:05:15.607Z,5.10
2018-02-03T15:07:43.206Z,6.50
2018-02-03T15:10:10.782Z,4.33
2018-02-03T15:12:40.609Z,4.43
2018-02-03T15:15:09.560Z,4.97
2018-02-03T15:17:37.399Z,4.27
2018-02-03T15:20:05.079Z,4.60
2018-02-03T15:22:32.778Z,4.53
2018-02-03T15:25:00.770Z,4.97
2018-02-03T15:27:29.436Z,5.10
2018-02-03T15:32:33.295Z,5.10
2018-02-03T15:35:01.832Z,5.40
2018-02-03T15:37:29.394Z,4.73
2018-02-03T15:39:57.029Z,4.90
2018-02-03T15:42:24.594Z,6.10
2018-02-03T15:44:52.162Z,4.40
2018-02-03T15:47:19.798Z,5.17
2018-02-03T15:49:47.364Z,4.60
2018-02-03T15:52:15.976Z,4.73
2018-02-03T15:54:43.602Z,4.10
2018-02-03T15:57:11.231Z,5.90
2018-02-03T15:59:38.790Z,4.43
2018-02-03T16:02:06.362Z,4.70
2018-02-03T16:04:33.942Z,4.13
2018-02-03T16:07:01.506Z,4.77
2018-02-03T16:09:30.051Z,5.10
2018-02-03T16:11:57.618Z,4.43
2018-02-03T16:14:26.259Z,4.30
2018-02-03T16:16:53.859Z,5.30
2018-02-03T16:19:21.423Z,5.23
2018-02-03T16:21:49.047Z,4.93
2018-02-03T16:24:18.657Z,6.90
2018-02-03T16:26:46.278Z,15.47
2018-02-03T16:29:13.857Z,4.77
2018-02-03T16:31:41.491Z,12.97
2018-02-03T16:34:09.127Z,19.20
2018-02-03T16:36:36.751Z,8.17
2018-02-03T16:39:04.458Z,16.90
2018-02-03T16:41:32.064Z,28.30
2018-02-03T16:43:59.801Z,9.10
2018-02-03T16:46:27.417Z,7.23
2018-02-03T16:48:55.023Z,6.73
2018-02-03T16:51:22.670Z,13.13
2018-02-03T16:53:50.402Z,105.13
2018-02-03T16:56:18.165Z,41.83
2018-02-03T16:58:45.782Z,33.60
2018-02-03T17:01:13.434Z,8.60
2018-02-03T17:03:41.068Z,4.00
2018-02-03T17:06:08.697Z,3.97
2018-02-03T17:08:36.275Z,4.33
2018-02-03T17:11:03.837Z,5.10
2018-02-03T17:13:31.450Z,4.60
2018-02-03T17:15:59.011Z,3.53
2018-02-03T17:18:26.582Z,3.50
2018-02-03T17:20:54.410Z,3.50
2018-02-03T17:23:23.024Z,3.87
2018-02-03T17:25:50.646Z,3.73
2018-02-03T17:28:18.269Z,3.40
2018-02-03T17:30:45.887Z,2.80
2018-02-03T17:33:13.466Z,3.10
2018-02-03T17:35:41.087Z,3.53
2018-02-03T17:38:14.250Z,4.20
2018-02-03T17:40:41.831Z,4.40
2018-02-03T17:43:09.417Z,5.43
2018-02-03T17:45:43.004Z,4.73
2018-02-03T17:48:10.655Z,5.10
2018-02-03T17:50:38.263Z,6.67
2018-02-03T17:53:05.841Z,5.20
2018-02-03T17:55:39.047Z,4.63
2018-02-03T17:58:06.632Z,5.47
2018-02-03T18:00:34.275Z,5.63
2018-02-03T18:03:01.899Z,4.30
2018-02-03T18:05:29.464Z,3.50
2018-02-03T18:07:57.024Z,4.47
2018-02-03T18:10:24.691Z,5.17
2018-02-03T18:12:52.311Z,5.77
2018-02-03T18:15:19.889Z,5.60
2018-02-03T18:17:47.454Z,5.90
2018-02-03T18:20:15.132Z,4.70
2018-02-03T18:22:42.699Z,5.17
2018-02-03T18:25:10.331Z,4.47
2018-02-03T18:27:37.903Z,3.73
2018-02-03T18:30:05.545Z,4.43
2018-02-03T18:32:33.151Z,3.83
2018-02-03T18:35:00.794Z,6.90
2018-02-03T18:37:28.422Z,4.73
2018-02-03T18:39:56.092Z,4.23
2018-02-03T18:42:24.526Z,4.03
2018-02-03T18:44:52.103Z,4.60
2018-02-03T18:47:19.662Z,4.40
2018-02-03T18:52:40.146Z,5.07
2018-02-03T18:55:07.777Z,6.70
2018-02-03T18:57:35.352Z,4.80
2018-02-03T19:00:03.591Z,4.60
2018-02-03T19:02:31.176Z,4.23
2018-02-03T19:04:59.658Z,5.00
2018-02-03T19:07:27.230Z,5.53
2018-02-03T19:09:54.806Z,6.37
2018-02-03T19:12:22.382Z,5.47
2018-02-03T19:14:49.946Z,5.63
2018-02-03T19:17:17.553Z,6.60
2018-02-03T19:19:45.117Z,6.20
2018-02-03T19:22:12.706Z,16.10
2018-02-03T19:24:41.388Z,8.70
2018-02-03T19:27:08.962Z,7.10
2018-02-03T19:29:36.532Z,9.10
2018-02-03T19:32:04.093Z,8.20
2018-02-03T19:34:31.763Z,8.70
2018-02-03T19:36:59.381Z,5.43
2018-02-03T19:39:26.997Z,6.27
2018-02-03T19:41:54.663Z,8.20
2018-02-03T19:44:22.304Z,7.20
2018-02-03T19:46:49.937Z,7.30
2018-02-03T19:49:17.574Z,7.53
2018-02-03T19:51:45.198Z,5.17
2018-02-03T19:54:12.826Z,9.80
2018-02-03T19:56:40.484Z,7.13
2018-02-03T19:59:08.076Z,5.20
2018-02-03T20:01:35.760Z,10.47
2018-02-03T20:04:04.186Z,6.80
2018-02-03T20:06:31.840Z,5.57
2018-02-03T20:09:00.315Z,11.10
2018-02-03T20:11:27.896Z,11.53
2018-02-03T20:13:55.606Z,14.90
2018-02-03T20:16:25.132Z,8.40
2018-02-03T20:18:53.193Z,8.20
2018-02-03T20:21:20.914Z,6.07
2018-02-03T20:23:49.411Z,7.70
2018-02-03T20:26:17.993Z,6.10
2018-02-03T20:28:46.676Z,6.40
2018-02-03T20:31:15.477Z,6.13
2018-02-03T20:33:43.211Z,8.10
2018-02-03T20:36:10.795Z,11.70
2018-02-03T20:38:38.673Z,9.27
2018-02-03T20:41:07.333Z,9.17
2018-02-03T20:43:34.986Z,8.37
2018-02-03T20:46:02.561Z,7.53
2018-02-03T20:48:30.893Z,10.60
2018-02-03T20:50:58.530Z,11.00
2018-02-03T20:53:26.146Z,10.13
2018-02-03T20:55:53.759Z,7.07
2018-02-03T20:58:21.327Z,6.93
2018-02-03T21:00:48.940Z,7.40
2018-02-03T21:03:16.525Z,7.27
2018-02-03T21:05:44.723Z,8.60
2018-02-03T21:08:12.312Z,10.30
2018-02-03T21:10:39.935Z,11.87
2018-02-03T21:13:07.574Z,10.17
2018-02-03T21:15:35.138Z,8.87
2018-02-03T21:18:02.726Z,8.17
2018-02-03T21:20:30.290Z,7.50
2018-02-03T21:22:57.913Z,6.30
2018-02-03T21:25:25.486Z,9.10
2018-02-03T21:27:53.109Z,7.50
2018-02-03T21:30:20.707Z,6.60
2018-02-03T21:35:30.261Z,5.07
2018-02-03T21:37:57.903Z,6.40
2018-02-03T21:40:25.458Z,6.90
2018-02-03T21:42:53.026Z,5.30
2018-02-03T21:45:20.627Z,6.83
2018-02-03T21:47:48.234Z,5.30
2018-02-03T21:50:15.801Z,7.87
2018-02-03T21:52:43.421Z,6.77
2018-02-03T21:55:11.038Z,7.50
2018-02-03T21:57:38.600Z,9.53
2018-02-03T22:00:06.189Z,10.47
2018-02-03T22:02:33.754Z,8.80
2018-02-03T22:05:01.393Z,8.17
2018-02-03T22:07:28.962Z,11.03
2018-02-03T22:09:56.637Z,7.00
2018-02-03T22:12:24.246Z,6.10
2018-02-03T22:14:51.809Z,7.33
2018-02-03T22:17:19.440Z,7.77
2018-02-03T22:19:46.998Z,8.93
2018-02-03T22:22:14.573Z,12.47
2018-02-03T22:24:42.137Z,14.43
2018-02-03T22:27:09.761Z,11.30
2018-02-03T22:29:37.330Z,9.97
2018-02-03T22:32:04.906Z,10.37
2018-02-03T22:34:32.486Z,12.13
2018-02-03T22:37:00.122Z,11.30
2018-02-03T22:39:27.754Z,12.70
2018-02-03T22:41:55.326Z,11.27
2018-02-03T22:44:22.999Z,8.80
2018-02-03T22:46:50.567Z,9.80
2018-02-03T22:49:18.190Z,10.40
2018-02-03T22:51:45.785Z,11.97
2018-02-03T22:54:13.359Z,12.90
2018-02-03T22:56:41.001Z,17.13
2018-02-03T22:59:08.570Z,12.27
2018-02-03T23:01:36.198Z,12.10
2018-02-03T23:04:03.899Z,13.60
2018-02-03T23:06:31.531Z,12.40
2018-02-03T23:08:59.143Z,14.20
2018-02-03T23:11:26.723Z,14.50
2018-02-03T23:13:54.299Z,14.50
2018-02-03T23:16:21.874Z,16.17
2018-02-03T23:18:49.506Z,15.73
2018-02-03T23:21:17.107Z,16.27
2018-02-03T23:23:44.819Z,17.00
2018-02-03T23:26:12.422Z,16.83
2018-02-03T23:28:40.029Z,14.83
2018-02-03T23:31:07.599Z,15.60
2018-02-03T23:33:35.189Z,12.93
2018-02-03T23:36:02.758Z,12.70
2018-02-03T23:38:30.325Z,12.60
2018-02-03T23:40:57.898Z,13.73
2018-02-03T23:43:25.575Z,14.50
2018-02-03T23:45:53.162Z,13.27
2018-02-03T23:48:20.805Z,22.10
2018-02-03T23:50:48.386Z,23.77
2018-02-03T23:53:15.958Z,21.90
2018-02-03T23:55:43.574Z,24.70
2018-02-03T23:58:11.209Z,22.23
